JA3VQW-13 Hirakata JP current weather conditions

sailwx.info

Wind from 292

Air temperature 21.1° C
Dewpoint 1.4° C

Last reported at 2014-Oct-24 08:45 UTC.
Time now 2014-Oct-24 09:38 UTC

Location: N 34°48' E 135°40'.
View on Google Maps.

See reports from other nearby stations

  
Tides and Currents Weather Stations Pressure Air Temp Water Temp Dewpoint Dewpoint Depression Visibility Wind Speed Wind Dir Waves Ship Positions
date/time (UTC)wind fromknots sea level pressurealtimeterstation pressurevisibilityair tempwater tempwave heightnotes
2014-Oct-24 08:45 292 21.1
2014-Oct-24 08:40 292 21.1
2014-Oct-24 08:10 292 22.8
2014-Oct-24 07:49 292 24.4
2014-Oct-24 07:19 292 26.1
2014-Oct-24 06:49 292 27.8
2014-Oct-24 06:19 135 13.9
2014-Oct-24 05:49 135 13.9
2014-Oct-24 05:19 135 13.9
2014-Oct-24 04:49 135 13.9
2014-Oct-24 04:19 135 13.9
2014-Oct-24 03:49 135 13.9
2014-Oct-24 03:19 135 13.9
2014-Oct-24 02:49 135 13.9
2014-Oct-24 02:19 135 13.9
2014-Oct-24 01:49 135 13.9
2014-Oct-24 01:19 135 13.9
2014-Oct-24 00:49 135 13.9
2014-Oct-24 00:19 135 13.9
2014-Oct-23 23:49 135 13.9
2014-Oct-23 23:19 135 13.9
2014-Oct-23 22:49 135 12.8
2014-Oct-23 22:19 135 12.2
2014-Oct-23 21:49 135 11.7
2014-Oct-23 21:19 135 11.1
2014-Oct-23 20:49 135 11.1
2014-Oct-23 20:19 135 11.7
2014-Oct-23 19:49 135 11.7
2014-Oct-23 19:19 135 12.2
2014-Oct-23 18:49 135 12.2
2014-Oct-23 18:19 135 12.2
2014-Oct-23 17:49 135 12.2
2014-Oct-23 17:19 135 12.8
2014-Oct-23 16:49 135 12.8
2014-Oct-23 16:19 135 12.8
2014-Oct-23 15:49 202 13.3
2014-Oct-23 15:19 202 13.3
2014-Oct-23 14:49 202 13.9
2014-Oct-23 14:19 202 13.9
2014-Oct-23 13:49 202 14.4
2014-Oct-23 13:19 202 14.4
2014-Oct-23 13:14 202 14.4
2014-Oct-23 13:08 202 15.0
2014-Oct-23 12:39 202 15.0
2014-Oct-23 12:09 202 15.6
2014-Oct-23 11:38 202 15.6
2014-Oct-23 11:27 202 16.1
2014-Oct-23 10:57 202 16.1
2014-Oct-23 10:27 202 16.1
2014-Oct-23 09:57 202 16.7
2014-Oct-23 09:27 202 16.7
2014-Oct-23 08:57 202 17.2
2014-Oct-23 08:24 202 18.3
2014-Oct-23 07:54 202 19.4
2014-Oct-23 07:46 292 20.0
2014-Oct-23 07:18 315 21.7
2014-Oct-23 06:48 261 21.7
2014-Oct-23 06:18 290 23.9
2014-Oct-23 05:48 297 22.2
2014-Oct-23 05:18 292 20.6
2014-Oct-23 04:48 292 20.6
2014-Oct-23 04:18 292 20.6
2014-Oct-23 03:48 292 20.6
2014-Oct-23 03:18 292 20.6
2014-Oct-23 02:48 292 20.6
2014-Oct-23 02:18 292 20.6
2014-Oct-23 01:48 292 20.6
2014-Oct-23 01:18 292 20.6
2014-Oct-23 00:48 292 20.6
2014-Oct-23 00:18 292 20.6
2014-Oct-22 23:48 292 20.6
2014-Oct-22 23:18 292 20.6
2014-Oct-22 22:48 292 20.6
2014-Oct-22 22:18 292 20.6
2014-Oct-22 21:48 292 20.6
2014-Oct-22 21:18 292 20.6
2014-Oct-22 20:48 292 20.6
2014-Oct-22 20:18 292 20.6
2014-Oct-22 19:48 292 20.6
2014-Oct-22 19:18 292 20.6
2014-Oct-22 18:48 292 20.6
2014-Oct-22 18:18 292 20.6
2014-Oct-22 17:48 292 20.6
2014-Oct-22 17:18 292 20.6
2014-Oct-22 16:48 292 20.6
2014-Oct-22 16:18 292 20.6
2014-Oct-22 15:48 292 20.6
2014-Oct-22 15:18 292 20.6
2014-Oct-22 14:48 292 20.6
2014-Oct-22 14:18 292 20.6
2014-Oct-22 14:01 292 20.6
2014-Oct-22 13:31 292 20.6
2014-Oct-22 13:01 292 20.6
2014-Oct-22 12:31 292 20.6
2014-Oct-22 12:01 292 20.6
2014-Oct-22 11:31 292 20.6
2014-Oct-22 11:01 292 20.6
2014-Oct-22 10:31 292 20.6
2014-Oct-22 10:01 292 20.6
2014-Oct-22 09:31 292 20.6
2014-Oct-22 09:01 292 20.6